sensor_id;sensor_type;location;lat;lon;timestamp;P1;durP1;ratioP1;P2;durP2;ratioP2
59263;SDS011;45030;42.720;23.344;2022-10-16T00:01:41;14.07;;;8.40;;
59263;SDS011;45030;42.720;23.344;2022-10-16T00:04:06;20.33;;;11.40;;
59263;SDS011;45030;42.720;23.344;2022-10-16T00:06:31;21.73;;;10.10;;
59263;SDS011;45030;42.720;23.344;2022-10-16T00:08:57;20.08;;;11.88;;
59263;SDS011;45030;42.720;23.344;2022-10-16T00:11:24;22.95;;;10.60;;
59263;SDS011;45030;42.720;23.344;2022-10-16T00:13:50;18.15;;;9.82;;
59263;SDS011;45030;42.720;23.344;2022-10-16T00:16:16;11.80;;;8.38;;
59263;SDS011;45030;42.720;23.344;2022-10-16T00:18:42;14.85;;;8.90;;
59263;SDS011;45030;42.720;23.344;2022-10-16T00:21:10;13.45;;;8.48;;
59263;SDS011;45030;42.720;23.344;2022-10-16T00:23:35;16.02;;;9.43;;
59263;SDS011;45030;42.720;23.344;2022-10-16T00:26:02;14.68;;;9.32;;
59263;SDS011;45030;42.720;23.344;2022-10-16T00:28:27;16.77;;;8.80;;
59263;SDS011;45030;42.720;23.344;2022-10-16T00:30:53;15.60;;;8.88;;
59263;SDS011;45030;42.720;23.344;2022-10-16T00:33:18;13.02;;;8.95;;
59263;SDS011;45030;42.720;23.344;2022-10-16T00:35:44;15.40;;;8.27;;
59263;SDS011;45030;42.720;23.344;2022-10-16T00:38:09;11.55;;;8.48;;
59263;SDS011;45030;42.720;23.344;2022-10-16T00:40:35;14.80;;;8.93;;
59263;SDS011;45030;42.720;23.344;2022-10-16T00:43:00;15.48;;;9.55;;
59263;SDS011;45030;42.720;23.344;2022-10-16T00:45:25;16.35;;;9.10;;
59263;SDS011;45030;42.720;23.344;2022-10-16T00:47:50;16.27;;;9.75;;
59263;SDS011;45030;42.720;23.344;2022-10-16T00:52:46;15.60;;;9.23;;
59263;SDS011;45030;42.720;23.344;2022-10-16T00:55:11;15.55;;;8.57;;
59263;SDS011;45030;42.720;23.344;2022-10-16T00:57:37;13.82;;;8.95;;
59263;SDS011;45030;42.720;23.344;2022-10-16T01:00:06;13.88;;;10.48;;
59263;SDS011;45030;42.720;23.344;2022-10-16T01:02:32;12.75;;;9.02;;
59263;SDS011;45030;42.720;23.344;2022-10-16T01:04:57;15.07;;;9.48;;
59263;SDS011;45030;42.720;23.344;2022-10-16T01:07:30;15.35;;;9.23;;
59263;SDS011;45030;42.720;23.344;2022-10-16T01:12:42;14.40;;;9.60;;
59263;SDS011;45030;42.720;23.344;2022-10-16T01:15:53;18.08;;;11.15;;
59263;SDS011;45030;42.720;23.344;2022-10-16T01:20:35;19.20;;;9.38;;
59263;SDS011;45030;42.720;23.344;2022-10-16T01:28:12;18.42;;;10.70;;
59263;SDS011;45030;42.720;23.344;2022-10-16T01:30:38;15.75;;;10.35;;
59263;SDS011;45030;42.720;23.344;2022-10-16T01:35:32;22.50;;;11.63;;
59263;SDS011;45030;42.720;23.344;2022-10-16T01:40:25;14.30;;;10.07;;
59263;SDS011;45030;42.720;23.344;2022-10-16T01:42:52;15.88;;;10.32;;
59263;SDS011;45030;42.720;23.344;2022-10-16T01:45:20;17.42;;;11.43;;
59263;SDS011;45030;42.720;23.344;2022-10-16T01:47:46;18.98;;;11.07;;
59263;SDS011;45030;42.720;23.344;2022-10-16T01:50:12;17.02;;;10.70;;
59263;SDS011;45030;42.720;23.344;2022-10-16T01:52:40;11.80;;;8.65;;
59263;SDS011;45030;42.720;23.344;2022-10-16T01:55:07;14.20;;;8.38;;
59263;SDS011;45030;42.720;23.344;2022-10-16T01:57:34;16.08;;;8.52;;
59263;SDS011;45030;42.720;23.344;2022-10-16T02:00:01;15.68;;;9.02;;
59263;SDS011;45030;42.720;23.344;2022-10-16T02:02:28;13.75;;;9.27;;
59263;SDS011;45030;42.720;23.344;2022-10-16T02:05:01;11.38;;;8.75;;
59263;SDS011;45030;42.720;23.344;2022-10-16T02:07:28;17.00;;;8.93;;
59263;SDS011;45030;42.720;23.344;2022-10-16T02:09:53;12.18;;;8.30;;
59263;SDS011;45030;42.720;23.344;2022-10-16T02:12:22;13.35;;;8.80;;
59263;SDS011;45030;42.720;23.344;2022-10-16T02:14:48;14.25;;;9.48;;
59263;SDS011;45030;42.720;23.344;2022-10-16T02:17:15;13.05;;;8.52;;
59263;SDS011;45030;42.720;23.344;2022-10-16T02:19:40;15.88;;;10.77;;
59263;SDS011;45030;42.720;23.344;2022-10-16T02:22:06;21.67;;;12.20;;
59263;SDS011;45030;42.720;23.344;2022-10-16T02:24:42;22.13;;;13.55;;
59263;SDS011;45030;42.720;23.344;2022-10-16T02:29:42;26.52;;;16.33;;
59263;SDS011;45030;42.720;23.344;2022-10-16T02:32:13;27.42;;;16.63;;
59263;SDS011;45030;42.720;23.344;2022-10-16T02:34:40;33.92;;;18.13;;
59263;SDS011;45030;42.720;23.344;2022-10-16T02:37:05;28.77;;;18.17;;
59263;SDS011;45030;42.720;23.344;2022-10-16T02:39:31;29.33;;;16.95;;
59263;SDS011;45030;42.720;23.344;2022-10-16T02:41:57;38.13;;;21.83;;
59263;SDS011;45030;42.720;23.344;2022-10-16T02:44:22;38.92;;;22.67;;
59263;SDS011;45030;42.720;23.344;2022-10-16T02:46:47;34.67;;;19.35;;
59263;SDS011;45030;42.720;23.344;2022-10-16T02:49:13;32.75;;;20.73;;
59263;SDS011;45030;42.720;23.344;2022-10-16T02:51:38;32.25;;;18.63;;
59263;SDS011;45030;42.720;23.344;2022-10-16T02:54:03;29.65;;;16.40;;
59263;SDS011;45030;42.720;23.344;2022-10-16T02:56:29;24.48;;;15.85;;
59263;SDS011;45030;42.720;23.344;2022-10-16T02:58:55;24.13;;;14.27;;
59263;SDS011;45030;42.720;23.344;2022-10-16T03:01:20;30.08;;;18.27;;
59263;SDS011;45030;42.720;23.344;2022-10-16T03:03:45;24.50;;;13.50;;
59263;SDS011;45030;42.720;23.344;2022-10-16T03:06:10;20.15;;;13.38;;
59263;SDS011;45030;42.720;23.344;2022-10-16T03:08:36;23.13;;;12.35;;
59263;SDS011;45030;42.720;23.344;2022-10-16T03:11:01;17.20;;;10.20;;
59263;SDS011;45030;42.720;23.344;2022-10-16T03:13:26;20.67;;;11.10;;
59263;SDS011;45030;42.720;23.344;2022-10-16T03:15:51;17.38;;;10.48;;
59263;SDS011;45030;42.720;23.344;2022-10-16T03:18:17;21.02;;;11.38;;
59263;SDS011;45030;42.720;23.344;2022-10-16T03:20:42;19.38;;;10.18;;
59263;SDS011;45030;42.720;23.344;2022-10-16T03:23:08;17.95;;;10.63;;
59263;SDS011;45030;42.720;23.344;2022-10-16T03:25:33;20.73;;;10.75;;
59263;SDS011;45030;42.720;23.344;2022-10-16T03:27:59;16.75;;;10.18;;
59263;SDS011;45030;42.720;23.344;2022-10-16T03:30:24;14.60;;;10.25;;
59263;SDS011;45030;42.720;23.344;2022-10-16T03:32:49;16.35;;;10.20;;
59263;SDS011;45030;42.720;23.344;2022-10-16T03:35:18;15.23;;;9.60;;
59263;SDS011;45030;42.720;23.344;2022-10-16T03:37:44;14.85;;;10.50;;
59263;SDS011;45030;42.720;23.344;2022-10-16T03:40:09;22.42;;;14.60;;
59263;SDS011;45030;42.720;23.344;2022-10-16T03:42:34;19.55;;;11.57;;
59263;SDS011;45030;42.720;23.344;2022-10-16T03:45:00;18.10;;;10.80;;
59263;SDS011;45030;42.720;23.344;2022-10-16T03:47:25;15.05;;;9.75;;
59263;SDS011;45030;42.720;23.344;2022-10-16T03:49:50;16.10;;;9.77;;
59263;SDS011;45030;42.720;23.344;2022-10-16T03:52:16;17.73;;;9.57;;
59263;SDS011;45030;42.720;23.344;2022-10-16T03:54:41;17.42;;;10.48;;
59263;SDS011;45030;42.720;23.344;2022-10-16T03:57:06;15.93;;;10.68;;
59263;SDS011;45030;42.720;23.344;2022-10-16T03:59:31;22.73;;;11.93;;
59263;SDS011;45030;42.720;23.344;2022-10-16T04:01:57;18.77;;;11.30;;
59263;SDS011;45030;42.720;23.344;2022-10-16T04:04:22;18.80;;;11.07;;
59263;SDS011;45030;42.720;23.344;2022-10-16T04:06:47;21.40;;;13.85;;
59263;SDS011;45030;42.720;23.344;2022-10-16T04:09:12;17.90;;;11.70;;
59263;SDS011;45030;42.720;23.344;2022-10-16T04:11:38;18.15;;;11.68;;
59263;SDS011;45030;42.720;23.344;2022-10-16T04:14:03;20.52;;;12.77;;
59263;SDS011;45030;42.720;23.344;2022-10-16T04:16:29;20.23;;;11.98;;
59263;SDS011;45030;42.720;23.344;2022-10-16T04:18:54;19.08;;;12.95;;
59263;SDS011;45030;42.720;23.344;2022-10-16T04:21:19;14.43;;;9.73;;
59263;SDS011;45030;42.720;23.344;2022-10-16T04:23:44;23.08;;;11.55;;
59263;SDS011;45030;42.720;23.344;2022-10-16T04:26:10;23.40;;;13.25;;
59263;SDS011;45030;42.720;23.344;2022-10-16T04:28:35;27.77;;;16.25;;
59263;SDS011;45030;42.720;23.344;2022-10-16T04:31:03;27.83;;;15.57;;
59263;SDS011;45030;42.720;23.344;2022-10-16T04:33:28;20.58;;;12.80;;
59263;SDS011;45030;42.720;23.344;2022-10-16T04:35:57;27.02;;;15.48;;
59263;SDS011;45030;42.720;23.344;2022-10-16T04:38:23;22.45;;;13.98;;
59263;SDS011;45030;42.720;23.344;2022-10-16T04:40:48;24.08;;;11.82;;
59263;SDS011;45030;42.720;23.344;2022-10-16T04:43:13;23.17;;;12.95;;
59263;SDS011;45030;42.720;23.344;2022-10-16T04:45:38;23.02;;;12.57;;
59263;SDS011;45030;42.720;23.344;2022-10-16T04:48:03;24.38;;;12.85;;
59263;SDS011;45030;42.720;23.344;2022-10-16T04:50:29;22.92;;;13.68;;
59263;SDS011;45030;42.720;23.344;2022-10-16T04:52:54;19.17;;;12.20;;
59263;SDS011;45030;42.720;23.344;2022-10-16T04:55:19;20.85;;;12.43;;
59263;SDS011;45030;42.720;23.344;2022-10-16T04:57:44;23.52;;;14.82;;
59263;SDS011;45030;42.720;23.344;2022-10-16T05:00:10;21.83;;;13.80;;
59263;SDS011;45030;42.720;23.344;2022-10-16T05:02:35;26.05;;;15.77;;
59263;SDS011;45030;42.720;23.344;2022-10-16T05:05:01;30.27;;;18.05;;
59263;SDS011;45030;42.720;23.344;2022-10-16T05:07:26;31.55;;;20.15;;
59263;SDS011;45030;42.720;23.344;2022-10-16T05:09:51;30.02;;;19.30;;
59263;SDS011;45030;42.720;23.344;2022-10-16T05:12:16;30.70;;;18.80;;
59263;SDS011;45030;42.720;23.344;2022-10-16T05:14:42;36.58;;;24.15;;
59263;SDS011;45030;42.720;23.344;2022-10-16T05:17:07;32.88;;;20.73;;
59263;SDS011;45030;42.720;23.344;2022-10-16T05:19:32;32.35;;;21.48;;
59263;SDS011;45030;42.720;23.344;2022-10-16T05:21:57;30.98;;;18.25;;
59263;SDS011;45030;42.720;23.344;2022-10-16T05:24:23;25.08;;;16.52;;
59263;SDS011;45030;42.720;23.344;2022-10-16T05:26:48;26.77;;;17.77;;
59263;SDS011;45030;42.720;23.344;2022-10-16T05:29:14;26.52;;;19.27;;
59263;SDS011;45030;42.720;23.344;2022-10-16T05:31:39;24.52;;;14.93;;
59263;SDS011;45030;42.720;23.344;2022-10-16T05:34:04;24.13;;;15.05;;
59263;SDS011;45030;42.720;23.344;2022-10-16T05:36:30;20.25;;;12.95;;
59263;SDS011;45030;42.720;23.344;2022-10-16T05:38:55;18.67;;;13.43;;
59263;SDS011;45030;42.720;23.344;2022-10-16T05:41:20;22.40;;;12.80;;
59263;SDS011;45030;42.720;23.344;2022-10-16T05:43:49;21.98;;;13.02;;
59263;SDS011;45030;42.720;23.344;2022-10-16T05:46:15;13.88;;;9.20;;
59263;SDS011;45030;42.720;23.344;2022-10-16T05:48:40;14.88;;;8.85;;
59263;SDS011;45030;42.720;23.344;2022-10-16T05:51:06;11.63;;;7.40;;
59263;SDS011;45030;42.720;23.344;2022-10-16T05:53:33;11.52;;;8.27;;
59263;SDS011;45030;42.720;23.344;2022-10-16T05:55:58;11.70;;;7.63;;
59263;SDS011;45030;42.720;23.344;2022-10-16T05:58:24;12.25;;;7.57;;
59263;SDS011;45030;42.720;23.344;2022-10-16T06:01:32;11.02;;;7.47;;
59263;SDS011;45030;42.720;23.344;2022-10-16T06:03:38;14.65;;;7.90;;
59263;SDS011;45030;42.720;23.344;2022-10-16T06:06:07;12.85;;;8.25;;
59263;SDS011;45030;42.720;23.344;2022-10-16T06:08:32;16.20;;;9.32;;
59263;SDS011;45030;42.720;23.344;2022-10-16T06:11:02;12.35;;;7.80;;
59263;SDS011;45030;42.720;23.344;2022-10-16T06:13:28;14.15;;;9.27;;
59263;SDS011;45030;42.720;23.344;2022-10-16T06:15:53;17.58;;;10.27;;
59263;SDS011;45030;42.720;23.344;2022-10-16T06:18:18;18.98;;;10.23;;
59263;SDS011;45030;42.720;23.344;2022-10-16T06:20:43;18.75;;;11.35;;
59263;SDS011;45030;42.720;23.344;2022-10-16T06:23:08;19.00;;;11.77;;
59263;SDS011;45030;42.720;23.344;2022-10-16T06:25:34;12.13;;;9.15;;
59263;SDS011;45030;42.720;23.344;2022-10-16T06:27:59;13.60;;;9.48;;
59263;SDS011;45030;42.720;23.344;2022-10-16T06:30:24;15.25;;;9.70;;
59263;SDS011;45030;42.720;23.344;2022-10-16T06:32:50;23.92;;;14.90;;
59263;SDS011;45030;42.720;23.344;2022-10-16T06:35:15;23.08;;;13.75;;
59263;SDS011;45030;42.720;23.344;2022-10-16T06:37:40;24.60;;;14.48;;
59263;SDS011;45030;42.720;23.344;2022-10-16T06:40:05;24.98;;;14.52;;
59263;SDS011;45030;42.720;23.344;2022-10-16T06:42:31;26.83;;;17.27;;
59263;SDS011;45030;42.720;23.344;2022-10-16T06:44:56;19.85;;;13.35;;
59263;SDS011;45030;42.720;23.344;2022-10-16T06:47:21;20.30;;;13.10;;
59263;SDS011;45030;42.720;23.344;2022-10-16T06:49:47;30.42;;;17.05;;
59263;SDS011;45030;42.720;23.344;2022-10-16T06:52:12;27.77;;;16.60;;
59263;SDS011;45030;42.720;23.344;2022-10-16T06:54:37;39.03;;;18.08;;
59263;SDS011;45030;42.720;23.344;2022-10-16T06:57:02;16.83;;;11.57;;
59263;SDS011;45030;42.720;23.344;2022-10-16T06:59:27;16.85;;;12.07;;
59263;SDS011;45030;42.720;23.344;2022-10-16T07:01:53;17.27;;;11.70;;
59263;SDS011;45030;42.720;23.344;2022-10-16T07:04:18;17.73;;;11.38;;
59263;SDS011;45030;42.720;23.344;2022-10-16T07:06:43;15.90;;;9.88;;
59263;SDS011;45030;42.720;23.344;2022-10-16T07:09:09;11.60;;;8.93;;
59263;SDS011;45030;42.720;23.344;2022-10-16T07:11:35;14.10;;;9.32;;
59263;SDS011;45030;42.720;23.344;2022-10-16T07:14:01;13.18;;;8.82;;
59263;SDS011;45030;42.720;23.344;2022-10-16T07:16:27;13.70;;;8.68;;
59263;SDS011;45030;42.720;23.344;2022-10-16T07:18:56;9.63;;;7.47;;
59263;SDS011;45030;42.720;23.344;2022-10-16T07:21:25;13.98;;;8.02;;
59263;SDS011;45030;42.720;23.344;2022-10-16T07:23:54;15.38;;;8.02;;
59263;SDS011;45030;42.720;23.344;2022-10-16T07:26:20;11.27;;;7.05;;
59263;SDS011;45030;42.720;23.344;2022-10-16T07:28:45;12.90;;;7.60;;
59263;SDS011;45030;42.720;23.344;2022-10-16T07:31:12;11.02;;;8.23;;
59263;SDS011;45030;42.720;23.344;2022-10-16T07:33:38;10.70;;;7.63;;
59263;SDS011;45030;42.720;23.344;2022-10-16T07:36:04;9.30;;;6.43;;
59263;SDS011;45030;42.720;23.344;2022-10-16T07:38:30;8.77;;;6.40;;
59263;SDS011;45030;42.720;23.344;2022-10-16T07:40:56;10.70;;;6.55;;
59263;SDS011;45030;42.720;23.344;2022-10-16T07:43:21;8.02;;;5.63;;
59263;SDS011;45030;42.720;23.344;2022-10-16T07:45:47;8.10;;;6.68;;
59263;SDS011;45030;42.720;23.344;2022-10-16T07:48:14;10.20;;;7.03;;
59263;SDS011;45030;42.720;23.344;2022-10-16T07:50:39;10.13;;;6.97;;
59263;SDS011;45030;42.720;23.344;2022-10-16T07:53:05;14.13;;;10.60;;
59263;SDS011;45030;42.720;23.344;2022-10-16T07:55:30;8.30;;;5.90;;
59263;SDS011;45030;42.720;23.344;2022-10-16T07:57:55;11.80;;;6.40;;
59263;SDS011;45030;42.720;23.344;2022-10-16T08:00:20;9.98;;;5.97;;
59263;SDS011;45030;42.720;23.344;2022-10-16T08:02:46;8.85;;;5.90;;
59263;SDS011;45030;42.720;23.344;2022-10-16T08:05:11;9.20;;;6.35;;
59263;SDS011;45030;42.720;23.344;2022-10-16T08:07:36;10.18;;;6.60;;
59263;SDS011;45030;42.720;23.344;2022-10-16T08:10:02;22.50;;;10.55;;
59263;SDS011;45030;42.720;23.344;2022-10-16T08:12:27;37.33;;;13.13;;
59263;SDS011;45030;42.720;23.344;2022-10-16T08:14:53;13.02;;;7.47;;
59263;SDS011;45030;42.720;23.344;2022-10-16T08:17:18;14.32;;;7.57;;
59263;SDS011;45030;42.720;23.344;2022-10-16T08:19:44;18.58;;;8.25;;
59263;SDS011;45030;42.720;23.344;2022-10-16T08:22:09;8.13;;;6.13;;
59263;SDS011;45030;42.720;23.344;2022-10-16T08:24:34;11.90;;;6.97;;
59263;SDS011;45030;42.720;23.344;2022-10-16T08:26:59;11.35;;;7.07;;
59263;SDS011;45030;42.720;23.344;2022-10-16T08:29:25;7.28;;;5.93;;
59263;SDS011;45030;42.720;23.344;2022-10-16T08:31:50;10.02;;;5.80;;
59263;SDS011;45030;42.720;23.344;2022-10-16T08:34:15;10.30;;;6.32;;
59263;SDS011;45030;42.720;23.344;2022-10-16T08:36:40;8.10;;;4.90;;
59263;SDS011;45030;42.720;23.344;2022-10-16T08:39:06;9.18;;;5.00;;
59263;SDS011;45030;42.720;23.344;2022-10-16T08:49:32;7.00;;;4.35;;
59263;SDS011;45030;42.720;23.344;2022-10-16T08:51:57;8.55;;;4.25;;
59263;SDS011;45030;42.720;23.344;2022-10-16T08:54:31;5.55;;;3.22;;
59263;SDS011;45030;42.720;23.344;2022-10-16T08:57:00;7.45;;;3.78;;
59263;SDS011;45030;42.720;23.344;2022-10-16T08:59:32;7.22;;;3.72;;
59263;SDS011;45030;42.720;23.344;2022-10-16T09:01:57;6.13;;;3.10;;
59263;SDS011;45030;42.720;23.344;2022-10-16T09:17:04;6.72;;;3.60;;
59263;SDS011;45030;42.720;23.344;2022-10-16T09:19:36;4.82;;;3.30;;
59263;SDS011;45030;42.720;23.344;2022-10-16T09:22:10;6.75;;;3.65;;
59263;SDS011;45030;42.720;23.344;2022-10-16T09:24:35;6.28;;;3.20;;
59263;SDS011;45030;42.720;23.344;2022-10-16T09:27:01;5.07;;;4.05;;
59263;SDS011;45030;42.720;23.344;2022-10-16T09:29:26;8.15;;;3.88;;
59263;SDS011;45030;42.720;23.344;2022-10-16T09:31:52;5.90;;;3.83;;
59263;SDS011;45030;42.720;23.344;2022-10-16T09:34:26;5.95;;;2.85;;
59263;SDS011;45030;42.720;23.344;2022-10-16T09:36:53;5.70;;;2.97;;
59263;SDS011;45030;42.720;23.344;2022-10-16T09:39:19;5.85;;;2.78;;
59263;SDS011;45030;42.720;23.344;2022-10-16T09:41:45;4.53;;;3.00;;
59263;SDS011;45030;42.720;23.344;2022-10-16T09:46:41;6.40;;;4.93;;
59263;SDS011;45030;42.720;23.344;2022-10-16T09:49:19;5.25;;;3.40;;
59263;SDS011;45030;42.720;23.344;2022-10-16T09:51:45;6.15;;;2.85;;
59263;SDS011;45030;42.720;23.344;2022-10-16T09:56:36;5.80;;;2.73;;
59263;SDS011;45030;42.720;23.344;2022-10-16T09:59:10;4.95;;;3.03;;
59263;SDS011;45030;42.720;23.344;2022-10-16T10:01:36;4.20;;;3.25;;
59263;SDS011;45030;42.720;23.344;2022-10-16T10:04:03;4.45;;;2.88;;
59263;SDS011;45030;42.720;23.344;2022-10-16T10:06:29;5.80;;;3.75;;
59263;SDS011;45030;42.720;23.344;2022-10-16T10:09:38;8.48;;;3.95;;
59263;SDS011;45030;42.720;23.344;2022-10-16T10:11:48;3.35;;;2.35;;
59263;SDS011;45030;42.720;23.344;2022-10-16T10:16:42;7.35;;;3.08;;
59263;SDS011;45030;42.720;23.344;2022-10-16T10:19:13;6.75;;;3.35;;
59263;SDS011;45030;42.720;23.344;2022-10-16T10:21:38;4.10;;;2.65;;
59263;SDS011;45030;42.720;23.344;2022-10-16T10:24:03;3.83;;;2.50;;
59263;SDS011;45030;42.720;23.344;2022-10-16T10:26:31;6.60;;;2.90;;
59263;SDS011;45030;42.720;23.344;2022-10-16T10:31:37;4.45;;;3.25;;
59263;SDS011;45030;42.720;23.344;2022-10-16T10:39:47;6.10;;;3.30;;
59263;SDS011;45030;42.720;23.344;2022-10-16T10:42:25;7.10;;;4.80;;
59263;SDS011;45030;42.720;23.344;2022-10-16T10:50:22;3.93;;;2.90;;
59263;SDS011;45030;42.720;23.344;2022-10-16T10:52:58;4.50;;;3.35;;
59263;SDS011;45030;42.720;23.344;2022-10-16T11:00:23;5.27;;;2.83;;
59263;SDS011;45030;42.720;23.344;2022-10-16T11:02:58;4.53;;;2.90;;
59263;SDS011;45030;42.720;23.344;2022-10-16T11:07:58;5.87;;;2.93;;
59263;SDS011;45030;42.720;23.344;2022-10-16T11:13:17;4.10;;;2.88;;
59263;SDS011;45030;42.720;23.344;2022-10-16T11:15:45;4.68;;;2.90;;
59263;SDS011;45030;42.720;23.344;2022-10-16T11:20:39;4.27;;;3.07;;
59263;SDS011;45030;42.720;23.344;2022-10-16T11:23:51;4.72;;;2.80;;
59263;SDS011;45030;42.720;23.344;2022-10-16T11:25:56;5.28;;;3.42;;
59263;SDS011;45030;42.720;23.344;2022-10-16T11:28:35;3.58;;;2.70;;
59263;SDS011;45030;42.720;23.344;2022-10-16T11:31:05;6.32;;;3.80;;
59263;SDS011;45030;42.720;23.344;2022-10-16T11:36:11;4.93;;;3.33;;
59263;SDS011;45030;42.720;23.344;2022-10-16T11:41:37;5.72;;;2.47;;
59263;SDS011;45030;42.720;23.344;2022-10-16T11:44:12;3.78;;;2.55;;
59263;SDS011;45030;42.720;23.344;2022-10-16T11:46:40;4.63;;;2.53;;
59263;SDS011;45030;42.720;23.344;2022-10-16T11:51:39;4.33;;;2.63;;
59263;SDS011;45030;42.720;23.344;2022-10-16T11:56:31;3.83;;;2.90;;
59263;SDS011;45030;42.720;23.344;2022-10-16T11:59:08;4.70;;;2.60;;
59263;SDS011;45030;42.720;23.344;2022-10-16T12:01:44;4.93;;;2.58;;
59263;SDS011;45030;42.720;23.344;2022-10-16T12:07:03;6.03;;;2.50;;
59263;SDS011;45030;42.720;23.344;2022-10-16T12:09:29;10.80;;;6.18;;
59263;SDS011;45030;42.720;23.344;2022-10-16T12:11:55;4.80;;;2.70;;
59263;SDS011;45030;42.720;23.344;2022-10-16T12:14:22;3.35;;;2.35;;
59263;SDS011;45030;42.720;23.344;2022-10-16T12:16:58;7.32;;;3.70;;
59263;SDS011;45030;42.720;23.344;2022-10-16T12:19:25;5.80;;;2.50;;
59263;SDS011;45030;42.720;23.344;2022-10-16T12:21:52;5.05;;;3.05;;
59263;SDS011;45030;42.720;23.344;2022-10-16T12:24:37;3.35;;;2.45;;
59263;SDS011;45030;42.720;23.344;2022-10-16T12:27:03;4.38;;;2.35;;
59263;SDS011;45030;42.720;23.344;2022-10-16T12:31:57;6.43;;;3.08;;
59263;SDS011;45030;42.720;23.344;2022-10-16T12:36:54;3.95;;;2.60;;
59263;SDS011;45030;42.720;23.344;2022-10-16T12:39:23;5.28;;;2.10;;
59263;SDS011;45030;42.720;23.344;2022-10-16T12:42:00;3.08;;;2.40;;
59263;SDS011;45030;42.720;23.344;2022-10-16T12:44:25;5.28;;;3.10;;
59263;SDS011;45030;42.720;23.344;2022-10-16T12:46:56;4.13;;;2.78;;
59263;SDS011;45030;42.720;23.344;2022-10-16T12:49:23;3.87;;;2.53;;
59263;SDS011;45030;42.720;23.344;2022-10-16T12:51:54;4.55;;;2.30;;
59263;SDS011;45030;42.720;23.344;2022-10-16T12:54:30;5.07;;;3.13;;
59263;SDS011;45030;42.720;23.344;2022-10-16T13:07:53;6.28;;;3.53;;
59263;SDS011;45030;42.720;23.344;2022-10-16T13:12:49;4.40;;;2.80;;
59263;SDS011;45030;42.720;23.344;2022-10-16T13:23:31;3.10;;;1.80;;
59263;SDS011;45030;42.720;23.344;2022-10-16T13:26:01;3.75;;;1.92;;
59263;SDS011;45030;42.720;23.344;2022-10-16T13:28:30;4.78;;;2.63;;
59263;SDS011;45030;42.720;23.344;2022-10-16T13:30:56;4.28;;;2.17;;
59263;SDS011;45030;42.720;23.344;2022-10-16T13:35:57;5.28;;;3.63;;
59263;SDS011;45030;42.720;23.344;2022-10-16T13:38:24;8.20;;;6.18;;
59263;SDS011;45030;42.720;23.344;2022-10-16T13:41:05;9.07;;;6.30;;
59263;SDS011;45030;42.720;23.344;2022-10-16T13:43:39;12.48;;;6.90;;
59263;SDS011;45030;42.720;23.344;2022-10-16T13:46:06;5.25;;;3.22;;
59263;SDS011;45030;42.720;23.344;2022-10-16T13:48:33;3.85;;;2.70;;
59263;SDS011;45030;42.720;23.344;2022-10-16T13:51:05;4.07;;;2.83;;
59263;SDS011;45030;42.720;23.344;2022-10-16T13:53:32;3.47;;;2.28;;
59263;SDS011;45030;42.720;23.344;2022-10-16T13:55:58;5.15;;;3.38;;
59263;SDS011;45030;42.720;23.344;2022-10-16T13:58:25;4.78;;;2.38;;
59263;SDS011;45030;42.720;23.344;2022-10-16T14:00:57;3.97;;;2.40;;
59263;SDS011;45030;42.720;23.344;2022-10-16T14:03:23;10.55;;;6.97;;
59263;SDS011;45030;42.720;23.344;2022-10-16T14:05:54;12.32;;;6.40;;
59263;SDS011;45030;42.720;23.344;2022-10-16T14:08:20;7.03;;;3.58;;
59263;SDS011;45030;42.720;23.344;2022-10-16T14:10:49;3.78;;;2.33;;
59263;SDS011;45030;42.720;23.344;2022-10-16T14:13:17;8.70;;;5.65;;
59263;SDS011;45030;42.720;23.344;2022-10-16T14:15:45;7.05;;;5.10;;
59263;SDS011;45030;42.720;23.344;2022-10-16T14:18:17;6.78;;;4.03;;
59263;SDS011;45030;42.720;23.344;2022-10-16T14:20:43;7.10;;;4.38;;
59263;SDS011;45030;42.720;23.344;2022-10-16T14:25:43;6.55;;;3.65;;
59263;SDS011;45030;42.720;23.344;2022-10-16T14:28:15;6.45;;;4.00;;
59263;SDS011;45030;42.720;23.344;2022-10-16T14:36:01;7.03;;;3.83;;
59263;SDS011;45030;42.720;23.344;2022-10-16T14:38:27;7.72;;;4.53;;
59263;SDS011;45030;42.720;23.344;2022-10-16T14:40:52;5.40;;;3.60;;
59263;SDS011;45030;42.720;23.344;2022-10-16T14:43:22;5.88;;;3.10;;
59263;SDS011;45030;42.720;23.344;2022-10-16T14:45:52;9.98;;;4.93;;
59263;SDS011;45030;42.720;23.344;2022-10-16T14:48:19;8.25;;;5.88;;
59263;SDS011;45030;42.720;23.344;2022-10-16T14:50:44;7.07;;;3.65;;
59263;SDS011;45030;42.720;23.344;2022-10-16T14:53:13;5.53;;;3.88;;
59263;SDS011;45030;42.720;23.344;2022-10-16T14:55:38;9.35;;;6.85;;
59263;SDS011;45030;42.720;23.344;2022-10-16T14:58:04;8.48;;;4.43;;
59263;SDS011;45030;42.720;23.344;2022-10-16T15:00:29;9.82;;;6.30;;
59263;SDS011;45030;42.720;23.344;2022-10-16T15:02:55;6.97;;;4.50;;
59263;SDS011;45030;42.720;23.344;2022-10-16T15:05:21;8.38;;;5.05;;
59263;SDS011;45030;42.720;23.344;2022-10-16T15:07:48;6.38;;;5.15;;
59263;SDS011;45030;42.720;23.344;2022-10-16T15:10:14;6.15;;;4.32;;
59263;SDS011;45030;42.720;23.344;2022-10-16T15:12:40;6.32;;;4.45;;
59263;SDS011;45030;42.720;23.344;2022-10-16T15:17:50;7.50;;;4.20;;
59263;SDS011;45030;42.720;23.344;2022-10-16T15:20:18;7.90;;;6.32;;
59263;SDS011;45030;42.720;23.344;2022-10-16T15:22:43;10.50;;;7.22;;
59263;SDS011;45030;42.720;23.344;2022-10-16T15:25:15;10.98;;;7.53;;
59263;SDS011;45030;42.720;23.344;2022-10-16T15:27:44;13.80;;;8.75;;
59263;SDS011;45030;42.720;23.344;2022-10-16T15:30:09;10.48;;;5.93;;
59263;SDS011;45030;42.720;23.344;2022-10-16T15:32:35;9.63;;;5.43;;
59263;SDS011;45030;42.720;23.344;2022-10-16T15:35:00;11.20;;;7.13;;
59263;SDS011;45030;42.720;23.344;2022-10-16T15:37:25;9.75;;;6.05;;
59263;SDS011;45030;42.720;23.344;2022-10-16T15:39:50;9.73;;;6.50;;
59263;SDS011;45030;42.720;23.344;2022-10-16T15:42:15;18.40;;;11.98;;
59263;SDS011;45030;42.720;23.344;2022-10-16T15:44:41;19.83;;;10.20;;
59263;SDS011;45030;42.720;23.344;2022-10-16T15:47:07;29.88;;;13.32;;
59263;SDS011;45030;42.720;23.344;2022-10-16T15:49:32;24.83;;;11.45;;
59263;SDS011;45030;42.720;23.344;2022-10-16T15:51:57;33.05;;;13.95;;
59263;SDS011;45030;42.720;23.344;2022-10-16T15:54:23;30.40;;;13.45;;
59263;SDS011;45030;42.720;23.344;2022-10-16T15:56:48;26.63;;;13.43;;
59263;SDS011;45030;42.720;23.344;2022-10-16T15:59:13;24.65;;;12.57;;
59263;SDS011;45030;42.720;23.344;2022-10-16T16:01:39;28.83;;;14.77;;
59263;SDS011;45030;42.720;23.344;2022-10-16T16:04:04;35.67;;;16.30;;
59263;SDS011;45030;42.720;23.344;2022-10-16T16:06:29;39.38;;;19.08;;
59263;SDS011;45030;42.720;23.344;2022-10-16T16:08:55;26.20;;;13.35;;
59263;SDS011;45030;42.720;23.344;2022-10-16T16:11:20;19.70;;;11.20;;
59263;SDS011;45030;42.720;23.344;2022-10-16T16:13:47;22.75;;;10.77;;
59263;SDS011;45030;42.720;23.344;2022-10-16T16:16:14;16.75;;;8.63;;
59263;SDS011;45030;42.720;23.344;2022-10-16T16:18:39;25.23;;;12.23;;
59263;SDS011;45030;42.720;23.344;2022-10-16T16:21:05;27.60;;;13.60;;
59263;SDS011;45030;42.720;23.344;2022-10-16T16:23:30;15.65;;;8.20;;
59263;SDS011;45030;42.720;23.344;2022-10-16T16:26:12;18.05;;;8.70;;
59263;SDS011;45030;42.720;23.344;2022-10-16T16:28:38;19.35;;;8.50;;